createdAt,value
2017-12-28T00:00:25.305Z,8.8
2017-12-28T00:01:27.713Z,8.8
2017-12-28T00:02:32.106Z,8.8
2017-12-28T00:03:35.672Z,8.8
2017-12-28T00:04:38.078Z,8.7
2017-12-28T00:05:40.499Z,8.7
2017-12-28T00:06:42.903Z,8.7
2017-12-28T00:07:45.324Z,8.8
2017-12-28T00:08:48.063Z,8.8
2017-12-28T00:09:50.461Z,8.8
2017-12-28T00:10:52.873Z,8.8
2017-12-28T00:11:55.281Z,8.8
2017-12-28T00:12:57.685Z,8.8
2017-12-28T00:14:00.515Z,8.8
2017-12-28T00:15:02.913Z,8.8
2017-12-28T00:16:05.315Z,8.9
2017-12-28T00:17:07.730Z,8.9
2017-12-28T00:18:10.141Z,8.9
2017-12-28T00:19:12.544Z,8.9
2017-12-28T00:20:14.960Z,8.9
2017-12-28T00:21:17.367Z,9
2017-12-28T00:22:19.793Z,8.9
2017-12-28T00:23:22.207Z,9
2017-12-28T00:24:24.608Z,8.9
2017-12-28T00:25:27.018Z,8.9
2017-12-28T00:26:29.993Z,9
2017-12-28T00:27:32.692Z,8.9
2017-12-28T00:28:35.384Z,8.9
2017-12-28T00:29:37.795Z,8.9
2017-12-28T00:30:40.502Z,8.9
2017-12-28T00:31:42.898Z,8.9
2017-12-28T00:32:45.305Z,8.9
2017-12-28T00:33:47.731Z,8.9
2017-12-28T00:34:50.128Z,9
2017-12-28T00:35:52.829Z,8.9
2017-12-28T00:36:55.233Z,8.9
2017-12-28T00:37:57.642Z,8.9
2017-12-28T00:39:00.343Z,8.9
2017-12-28T00:40:02.753Z,8.9
2017-12-28T00:41:05.434Z,8.9
2017-12-28T00:42:07.848Z,8.9
2017-12-28T00:43:10.256Z,8.8
2017-12-28T00:44:12.669Z,8.8
2017-12-28T00:45:15.079Z,8.8
2017-12-28T00:46:17.479Z,8.8
2017-12-28T00:47:20.184Z,8.8
2017-12-28T00:48:22.604Z,8.8
2017-12-28T00:49:25.000Z,8.8
2017-12-28T00:50:27.415Z,8.8
2017-12-28T00:51:29.826Z,8.8
2017-12-28T00:52:32.242Z,8.8
2017-12-28T00:53:34.655Z,8.7
2017-12-28T00:54:37.352Z,8.7
2017-12-28T00:55:39.747Z,8.8
2017-12-28T00:56:42.157Z,8.7
2017-12-28T00:57:44.577Z,8.7
2017-12-28T00:58:46.985Z,8.7
2017-12-28T00:59:49.385Z,8.7
2017-12-28T01:00:51.801Z,8.7
2017-12-28T01:01:54.208Z,8.7
2017-12-28T01:02:56.618Z,8.7
2017-12-28T01:03:59.030Z,8.7
2017-12-28T01:05:01.433Z,8.7
2017-12-28T01:06:03.841Z,8.7
2017-12-28T01:07:06.256Z,8.7
2017-12-28T01:08:08.660Z,8.7
2017-12-28T01:09:11.063Z,8.7
2017-12-28T01:10:13.476Z,8.7
2017-12-28T01:11:15.880Z,8.7
2017-12-28T01:12:18.296Z,8.7
2017-12-28T01:13:20.704Z,8.7
2017-12-28T01:14:23.100Z,8.7
2017-12-28T01:15:25.513Z,8.7
2017-12-28T01:16:27.925Z,8.7
2017-12-28T01:17:30.325Z,8.8
2017-12-28T01:18:32.740Z,8.8
2017-12-28T01:19:35.138Z,8.8
2017-12-28T01:20:37.830Z,8.7
2017-12-28T01:21:40.249Z,8.7
2017-12-28T01:22:42.651Z,8.7
2017-12-28T01:23:45.056Z,8.7
2017-12-28T01:24:47.472Z,8.7
2017-12-28T01:25:49.876Z,8.7
2017-12-28T01:26:52.293Z,8.7
2017-12-28T01:27:54.702Z,8.7
2017-12-28T01:28:57.120Z,8.7
2017-12-28T01:30:00.102Z,8.7
2017-12-28T01:31:02.500Z,8.7
2017-12-28T01:32:04.915Z,8.6
2017-12-28T01:33:07.322Z,8.6
2017-12-28T01:34:09.732Z,8.7
2017-12-28T01:35:12.141Z,8.7
2017-12-28T01:36:14.552Z,8.7
2017-12-28T01:37:16.959Z,8.7
2017-12-28T01:38:19.374Z,8.7
2017-12-28T01:39:22.075Z,8.7
2017-12-28T01:40:24.491Z,8.7
2017-12-28T01:41:26.901Z,8.7
2017-12-28T01:42:29.303Z,8.7
2017-12-28T01:43:31.720Z,8.7
2017-12-28T01:44:34.129Z,8.7
2017-12-28T01:45:36.533Z,8.7
2017-12-28T01:46:38.948Z,8.7
2017-12-28T01:47:41.359Z,8.6
2017-12-28T01:48:43.817Z,8.6
2017-12-28T01:49:46.226Z,8.6
2017-12-28T01:50:48.638Z,8.6
2017-12-28T01:51:51.044Z,8.6
2017-12-28T01:52:53.463Z,8.5
2017-12-28T01:53:55.868Z,8.6
2017-12-28T01:54:58.848Z,8.6
2017-12-28T01:56:01.826Z,8.6
2017-12-28T01:57:04.231Z,8.6
2017-12-28T01:58:06.646Z,8.5
2017-12-28T01:59:09.062Z,8.6
2017-12-28T02:00:11.465Z,8.5
2017-12-28T02:01:13.877Z,8.5
2017-12-28T02:02:16.292Z,8.5
2017-12-28T02:03:18.690Z,8.5
2017-12-28T02:04:21.107Z,8.5
2017-12-28T02:05:23.513Z,8.5
2017-12-28T02:06:25.918Z,8.5
2017-12-28T02:07:28.322Z,8.6
2017-12-28T02:08:30.733Z,8.5
2017-12-28T02:09:33.147Z,8.5
2017-12-28T02:10:35.862Z,8.5
2017-12-28T02:11:38.263Z,8.5
2017-12-28T02:12:40.677Z,8.5
2017-12-28T02:13:43.372Z,8.5
2017-12-28T02:14:45.782Z,8.5
2017-12-28T02:15:48.199Z,8.5
2017-12-28T02:16:50.611Z,8.5
2017-12-28T02:17:53.009Z,8.5
2017-12-28T02:18:55.415Z,8.5
2017-12-28T02:19:57.815Z,8.5
2017-12-28T02:21:00.504Z,8.5
2017-12-28T02:22:02.909Z,8.5
2017-12-28T02:23:05.314Z,8.5
2017-12-28T02:24:08.012Z,8.5
2017-12-28T02:25:10.420Z,8.5
2017-12-28T02:26:12.830Z,8.5
2017-12-28T02:27:15.236Z,8.5
2017-12-28T02:28:17.632Z,8.5
2017-12-28T02:29:20.038Z,8.5
2017-12-28T02:30:22.450Z,8.5
2017-12-28T02:31:25.153Z,8.5
2017-12-28T02:32:27.553Z,8.5
2017-12-28T02:33:29.969Z,8.5
2017-12-28T02:34:32.376Z,8.6
2017-12-28T02:35:34.797Z,8.6
2017-12-28T02:36:37.207Z,8.6
2017-12-28T02:37:39.604Z,8.6
2017-12-28T02:38:42.299Z,8.6
2017-12-28T02:39:44.722Z,8.6
2017-12-28T02:40:47.131Z,8.6
2017-12-28T02:41:49.544Z,8.6
2017-12-28T02:42:51.944Z,8.6
2017-12-28T02:43:54.354Z,8.6
2017-12-28T02:44:56.774Z,8.6
2017-12-28T02:45:59.184Z,8.6
2017-12-28T02:47:01.589Z,8.6
2017-12-28T02:48:04.005Z,8.6
2017-12-28T02:49:06.404Z,8.6
2017-12-28T02:50:08.818Z,8.6
2017-12-28T02:51:11.227Z,8.6
2017-12-28T02:52:13.631Z,8.7
2017-12-28T02:53:16.040Z,8.7
2017-12-28T02:54:18.458Z,8.7
2017-12-28T02:55:21.150Z,8.7
2017-12-28T02:56:23.550Z,8.7
2017-12-28T02:57:26.250Z,8.7
2017-12-28T02:58:28.944Z,8.7
2017-12-28T02:59:31.355Z,8.6
2017-12-28T03:00:33.771Z,8.7
2017-12-28T03:01:36.182Z,8.7
2017-12-28T03:02:38.869Z,8.7
2017-12-28T03:03:41.292Z,8.6
2017-12-28T03:04:43.704Z,8.7
2017-12-28T03:05:46.397Z,8.6
2017-12-28T03:06:48.799Z,8.6
2017-12-28T03:07:51.210Z,8.6
2017-12-28T03:08:54.037Z,8.6
2017-12-28T03:09:56.453Z,8.6
2017-12-28T03:10:58.851Z,8.6
2017-12-28T03:12:01.269Z,8.6
2017-12-28T03:13:03.675Z,8.6
2017-12-28T03:14:06.080Z,8.5
2017-12-28T03:15:08.499Z,8.5
2017-12-28T03:16:10.909Z,8.5
2017-12-28T03:17:13.311Z,8.5
2017-12-28T03:18:15.726Z,8.4
2017-12-28T03:19:18.440Z,8.4
2017-12-28T03:20:20.843Z,8.4
2017-12-28T03:21:23.254Z,8.4
2017-12-28T03:22:25.657Z,8.4
2017-12-28T03:23:28.062Z,8.4
2017-12-28T03:24:30.466Z,8.4
2017-12-28T03:25:32.879Z,8.4
2017-12-28T03:26:35.287Z,8.4
2017-12-28T03:27:37.686Z,8.4
2017-12-28T03:28:40.685Z,8.3
2017-12-28T03:29:43.092Z,8.3
2017-12-28T03:30:45.502Z,8.3
2017-12-28T03:31:47.905Z,8.3
2017-12-28T03:32:50.314Z,8.3
2017-12-28T03:33:52.719Z,8.2
2017-12-28T03:34:55.426Z,8.2
2017-12-28T03:35:57.828Z,8.2
2017-12-28T03:37:00.229Z,8.2
2017-12-28T03:38:02.928Z,8.2
2017-12-28T03:39:05.346Z,8.2
2017-12-28T03:40:07.758Z,8.2
2017-12-28T03:41:10.169Z,8.2
2017-12-28T03:42:12.562Z,8.2
2017-12-28T03:43:14.974Z,8.2
2017-12-28T03:44:17.385Z,8.2
2017-12-28T03:45:19.793Z,8.1
2017-12-28T03:46:22.204Z,8.1
2017-12-28T03:47:24.614Z,8.1
2017-12-28T03:48:27.299Z,8.1
2017-12-28T03:49:29.724Z,8.1
2017-12-28T03:50:32.129Z,8.1
2017-12-28T03:51:34.541Z,8.1
2017-12-28T03:52:36.943Z,8.1
2017-12-28T03:53:39.357Z,8.1
2017-12-28T03:54:41.766Z,8.1
2017-12-28T03:55:44.171Z,8.1
2017-12-28T03:56:46.863Z,8.2
2017-12-28T03:57:49.268Z,8.2
2017-12-28T03:58:51.668Z,8.2
2017-12-28T03:59:54.077Z,8.2
2017-12-28T04:00:56.487Z,8.2
2017-12-28T04:01:58.894Z,8.2
2017-12-28T04:03:01.584Z,8.2
2017-12-28T04:04:03.995Z,8.2
2017-12-28T04:05:06.448Z,8.2
2017-12-28T04:06:08.824Z,8.1
2017-12-28T04:07:11.224Z,8.1
2017-12-28T04:08:13.633Z,8.1
2017-12-28T04:09:16.050Z,8.1
2017-12-28T04:10:18.443Z,8.1
2017-12-28T04:11:21.147Z,8
2017-12-28T04:12:23.557Z,8
2017-12-28T04:13:25.978Z,8
2017-12-28T04:14:28.377Z,8
2017-12-28T04:15:30.788Z,8
2017-12-28T04:16:33.191Z,8
2017-12-28T04:17:35.617Z,8
2017-12-28T04:18:38.025Z,8
2017-12-28T04:19:40.427Z,8
2017-12-28T04:20:42.835Z,8
2017-12-28T04:21:45.249Z,8
2017-12-28T04:22:47.656Z,8
2017-12-28T04:23:50.060Z,7.9
2017-12-28T04:24:52.765Z,8
2017-12-28T04:25:55.172Z,8
2017-12-28T04:26:57.575Z,8
2017-12-28T04:27:59.986Z,8
2017-12-28T04:29:02.401Z,8
2017-12-28T04:30:04.799Z,8
2017-12-28T04:31:07.219Z,8
2017-12-28T04:32:09.617Z,8
2017-12-28T04:33:12.307Z,8
2017-12-28T04:34:15.005Z,8
2017-12-28T04:35:17.414Z,7.9
2017-12-28T04:36:19.822Z,7.9
2017-12-28T04:37:22.231Z,8
2017-12-28T04:38:24.632Z,7.9
2017-12-28T04:39:27.039Z,7.9
2017-12-28T04:40:29.446Z,7.9
2017-12-28T04:41:31.843Z,7.9
2017-12-28T04:42:34.257Z,7.9
2017-12-28T04:43:36.671Z,7.9
2017-12-28T04:44:39.084Z,7.9
2017-12-28T04:45:41.768Z,8
2017-12-28T04:46:44.170Z,8
2017-12-28T04:47:46.580Z,8
2017-12-28T04:48:48.993Z,8
2017-12-28T04:49:51.398Z,8
2017-12-28T04:50:53.805Z,8.1
2017-12-28T04:51:56.208Z,8.1
2017-12-28T04:52:58.627Z,8.1
2017-12-28T04:54:01.036Z,8.1
2017-12-28T04:55:03.444Z,8.2
2017-12-28T04:56:05.853Z,8.2
2017-12-28T04:57:08.269Z,8.3
2017-12-28T04:58:10.666Z,8.3
2017-12-28T04:59:13.074Z,8.3
2017-12-28T05:00:15.488Z,8.3
2017-12-28T05:01:17.893Z,8.3
2017-12-28T05:02:20.296Z,8.3
2017-12-28T05:03:22.714Z,8.3
2017-12-28T05:04:25.120Z,8.4
2017-12-28T05:05:27.552Z,8.4
2017-12-28T05:06:30.526Z,8.4
2017-12-28T05:07:32.927Z,8.4
2017-12-28T05:08:35.341Z,8.4
2017-12-28T05:09:37.738Z,8.4
2017-12-28T05:10:40.152Z,8.4
2017-12-28T05:11:42.564Z,8.5
2017-12-28T05:12:44.971Z,8.4
2017-12-28T05:13:47.378Z,8.4
2017-12-28T05:14:50.079Z,8.5
2017-12-28T05:15:52.485Z,8.5
2017-12-28T05:16:54.910Z,8.4
2017-12-28T05:17:57.598Z,8.4
2017-12-28T05:19:00.008Z,8.4
2017-12-28T05:20:02.725Z,8.5
2017-12-28T05:21:05.134Z,8.5
2017-12-28T05:22:07.540Z,8.5
2017-12-28T05:23:09.955Z,8.5
2017-12-28T05:24:12.367Z,8.5
2017-12-28T05:25:14.785Z,8.5
2017-12-28T05:26:17.194Z,8.5
2017-12-28T05:27:19.883Z,8.5
2017-12-28T05:28:22.292Z,8.5
2017-12-28T05:29:24.969Z,8.5
2017-12-28T05:30:27.385Z,8.6
2017-12-28T05:31:29.797Z,8.6
2017-12-28T05:32:32.195Z,8.6
2017-12-28T05:33:34.610Z,8.6
2017-12-28T05:34:37.019Z,8.6
2017-12-28T05:35:39.434Z,8.6
2017-12-28T05:36:41.848Z,8.6
2017-12-28T05:37:44.258Z,8.7
2017-12-28T05:38:46.666Z,8.7
2017-12-28T05:39:49.080Z,8.7
2017-12-28T05:40:51.481Z,8.7
2017-12-28T05:41:53.892Z,8.7
2017-12-28T05:42:56.311Z,8.8
2017-12-28T05:43:58.722Z,8.8
2017-12-28T05:45:01.134Z,8.8
2017-12-28T05:46:03.542Z,8.7
2017-12-28T05:47:05.947Z,8.7
2017-12-28T05:48:08.647Z,8.8
2017-12-28T05:49:11.339Z,8.8
2017-12-28T05:50:13.741Z,8.8
2017-12-28T05:51:16.146Z,8.8
2017-12-28T05:52:18.561Z,8.8
2017-12-28T05:53:20.979Z,8.9
2017-12-28T05:54:23.673Z,8.9
2017-12-28T05:55:26.353Z,8.9
2017-12-28T05:56:28.771Z,9
2017-12-28T05:57:31.463Z,9
2017-12-28T05:58:33.873Z,9
2017-12-28T05:59:36.281Z,9
2017-12-28T06:00:38.691Z,9
2017-12-28T06:01:41.101Z,9
2017-12-28T06:02:43.523Z,9
2017-12-28T06:03:45.929Z,9
2017-12-28T06:04:48.906Z,9
2017-12-28T06:05:51.590Z,9
2017-12-28T06:06:54.004Z,9
2017-12-28T06:07:56.407Z,9
2017-12-28T06:08:58.822Z,9
2017-12-28T06:10:01.227Z,9
2017-12-28T06:11:03.917Z,9
2017-12-28T06:12:06.613Z,9
2017-12-28T06:13:09.019Z,9
2017-12-28T06:14:11.424Z,9.1
2017-12-28T06:15:13.843Z,9.1
2017-12-28T06:16:16.526Z,9.1
2017-12-28T06:17:18.936Z,9
2017-12-28T06:18:21.347Z,9.1
2017-12-28T06:19:23.759Z,9.1
2017-12-28T06:20:26.170Z,9.1
2017-12-28T06:21:28.585Z,9.1
2017-12-28T06:22:30.996Z,9.1
2017-12-28T06:23:33.396Z,9.1
2017-12-28T06:24:35.813Z,9.1
2017-12-28T06:25:38.219Z,9.1
2017-12-28T06:26:40.619Z,9.1
2017-12-28T06:27:43.315Z,9.1
2017-12-28T06:28:45.725Z,9.1
2017-12-28T06:29:48.128Z,9.1
2017-12-28T06:30:50.545Z,9.1
2017-12-28T06:31:52.954Z,9.1
2017-12-28T06:32:55.376Z,9.1
2017-12-28T06:33:57.804Z,9
2017-12-28T06:35:00.504Z,9
2017-12-28T06:36:02.913Z,9
2017-12-28T06:37:05.605Z,9
2017-12-28T06:38:08.007Z,9
2017-12-28T06:39:13.632Z,9
2017-12-28T06:40:23.530Z,9
2017-12-28T06:41:32.869Z,9
2017-12-28T06:42:40.826Z,9
2017-12-28T06:43:48.144Z,9
2017-12-28T06:44:50.670Z,9
2017-12-28T06:45:53.416Z,9.1
2017-12-28T06:46:55.774Z,9
2017-12-28T06:47:58.461Z,9.1
2017-12-28T06:49:01.154Z,9.1
2017-12-28T06:50:03.575Z,9.1
2017-12-28T06:51:05.980Z,9.2
2017-12-28T06:52:08.417Z,9.2
2017-12-28T06:53:11.112Z,9.2
2017-12-28T06:54:13.529Z,9.2
2017-12-28T06:55:15.931Z,9.2
2017-12-28T06:56:18.338Z,9.3
2017-12-28T06:57:20.754Z,9.3
2017-12-28T06:58:23.163Z,9.3
2017-12-28T06:59:25.580Z,9.3
2017-12-28T07:00:27.984Z,9.3
2017-12-28T07:01:30.393Z,9.3
2017-12-28T07:02:32.805Z,9.3
2017-12-28T07:03:35.216Z,9.3
2017-12-28T07:04:37.901Z,9.3
2017-12-28T07:05:40.312Z,9.4
2017-12-28T07:06:42.724Z,9.4
2017-12-28T07:07:45.131Z,9.4
2017-12-28T07:08:47.544Z,9.4
2017-12-28T07:09:49.953Z,9.4
2017-12-28T07:10:52.372Z,9.4
2017-12-28T07:11:54.788Z,9.4
2017-12-28T07:12:57.197Z,9.4
2017-12-28T07:13:59.605Z,9.4
2017-12-28T07:15:02.020Z,9.3
2017-12-28T07:16:04.434Z,9.3
2017-12-28T07:17:07.143Z,9.3
2017-12-28T07:18:09.552Z,9.3
2017-12-28T07:19:11.954Z,9.3
2017-12-28T07:20:14.650Z,9.3
2017-12-28T07:21:17.355Z,9.3
2017-12-28T07:22:20.042Z,9.3
2017-12-28T07:23:22.726Z,9.3
2017-12-28T07:24:25.136Z,9.3
2017-12-28T07:25:27.552Z,9.4
2017-12-28T07:26:29.951Z,9.4
2017-12-28T07:27:32.363Z,9.4
2017-12-28T07:28:34.785Z,9.4
2017-12-28T07:29:37.232Z,9.4
2017-12-28T07:30:39.606Z,9.4
2017-12-28T07:31:42.609Z,9.4
2017-12-28T07:32:45.014Z,9.4
2017-12-28T07:33:47.427Z,9.4
2017-12-28T07:34:49.839Z,9.4
2017-12-28T07:35:52.244Z,9.4
2017-12-28T07:36:54.667Z,9.4
2017-12-28T07:37:57.065Z,9.3
2017-12-28T07:38:59.484Z,9.3
2017-12-28T07:40:01.903Z,9.3
2017-12-28T07:41:04.315Z,9.3
2017-12-28T07:42:06.727Z,9.3
2017-12-28T07:43:09.422Z,9.3
2017-12-28T07:44:11.834Z,9.3
2017-12-28T07:45:14.258Z,9.3
2017-12-28T07:46:16.661Z,9.3
2017-12-28T07:47:19.068Z,9.2
2017-12-28T07:48:21.477Z,9.2
2017-12-28T07:49:23.888Z,9.3
2017-12-28T07:50:26.308Z,9.2
2017-12-28T07:51:28.716Z,9.2
2017-12-28T07:52:31.130Z,9.2
2017-12-28T07:53:33.535Z,9.3
2017-12-28T07:54:35.946Z,9.2
2017-12-28T07:55:38.350Z,9.3
2017-12-28T07:56:41.075Z,9.2
2017-12-28T07:57:43.487Z,9.2
2017-12-28T07:58:45.900Z,9.2
2017-12-28T07:59:48.310Z,9.2
2017-12-28T08:00:51.013Z,9.2
2017-12-28T08:01:53.427Z,9.3
2017-12-28T08:02:55.852Z,9.3
2017-12-28T08:03:58.263Z,9.3
2017-12-28T08:05:00.958Z,9.3
2017-12-28T08:06:03.373Z,9.3
2017-12-28T08:07:05.794Z,9.3
2017-12-28T08:08:08.203Z,9.3
2017-12-28T08:09:10.622Z,9.2
2017-12-28T08:10:13.033Z,9.2
2017-12-28T08:11:15.456Z,9.2
2017-12-28T08:12:17.870Z,9.2
2017-12-28T08:13:20.281Z,9.2
2017-12-28T08:14:24.113Z,9.1
2017-12-28T08:15:27.073Z,9.1
2017-12-28T08:16:29.483Z,9.1
2017-12-28T08:17:31.909Z,9.1
2017-12-28T08:18:34.310Z,9.1
2017-12-28T08:19:37.039Z,9.1
2017-12-28T08:20:39.457Z,9.1
2017-12-28T08:21:42.150Z,9.1
2017-12-28T08:22:45.374Z,9.1
2017-12-28T08:23:48.382Z,9.1
2017-12-28T08:24:51.145Z,9.2
2017-12-28T08:25:53.550Z,9.2
2017-12-28T08:26:55.960Z,9.2
2017-12-28T08:27:58.377Z,9.2
2017-12-28T08:29:00.781Z,9.2
2017-12-28T08:30:03.189Z,9.2
2017-12-28T08:31:05.883Z,9.2
2017-12-28T08:32:08.291Z,9.1
2017-12-28T08:33:10.702Z,9.1
2017-12-28T08:34:13.112Z,9.1
2017-12-28T08:35:15.518Z,9.1
2017-12-28T08:36:17.933Z,9.1
2017-12-28T08:37:20.666Z,9.1
2017-12-28T08:38:23.080Z,9.1
2017-12-28T08:39:25.777Z,9.1
2017-12-28T08:40:28.186Z,9.1
2017-12-28T08:41:30.881Z,9.1
2017-12-28T08:42:33.295Z,9.1
2017-12-28T08:43:35.698Z,9.1
2017-12-28T08:44:38.158Z,9.1
2017-12-28T08:45:40.562Z,9.1
2017-12-28T08:46:42.977Z,9.1
2017-12-28T08:47:45.386Z,9.1
2017-12-28T08:48:47.799Z,9.1
2017-12-28T08:49:50.196Z,9.1
2017-12-28T08:50:52.611Z,9.1
2017-12-28T08:51:55.030Z,9.2
2017-12-28T08:52:57.439Z,9.2
2017-12-28T08:53:59.833Z,9.2
2017-12-28T08:55:02.559Z,9.2
2017-12-28T08:56:04.976Z,9.2
2017-12-28T08:57:07.392Z,9.2
2017-12-28T08:58:09.805Z,9.2
2017-12-28T08:59:12.211Z,9.2
2017-12-28T09:00:14.621Z,9.2
2017-12-28T09:01:17.043Z,9.2
2017-12-28T09:02:19.454Z,9.2
2017-12-28T09:03:21.853Z,9.2
2017-12-28T09:04:24.261Z,9.1
2017-12-28T09:05:26.665Z,9.2
2017-12-28T09:06:29.084Z,9.2
2017-12-28T09:07:31.495Z,9.2
2017-12-28T09:08:33.891Z,9.2
2017-12-28T09:09:36.301Z,9.2
2017-12-28T09:10:38.725Z,9.2
2017-12-28T09:11:41.131Z,9.2
2017-12-28T09:12:43.821Z,9.2
2017-12-28T09:13:46.223Z,9.2
2017-12-28T09:14:48.632Z,9.3
2017-12-28T09:15:51.340Z,9.3
2017-12-28T09:16:54.049Z,9.3
2017-12-28T09:17:56.473Z,9.3
2017-12-28T09:18:59.184Z,9.3
2017-12-28T09:20:01.598Z,9.3
2017-12-28T09:21:04.029Z,9.3
2017-12-28T09:22:06.428Z,9.4
2017-12-28T09:23:08.842Z,9.3
2017-12-28T09:24:11.258Z,9.4
2017-12-28T09:25:13.670Z,9.4
2017-12-28T09:26:16.111Z,9.4
2017-12-28T09:27:18.496Z,9.4
2017-12-28T09:28:20.896Z,9.4
2017-12-28T09:29:23.310Z,9.4
2017-12-28T09:30:25.992Z,9.4
2017-12-28T09:31:28.405Z,9.5
2017-12-28T09:32:30.809Z,9.5
2017-12-28T09:33:33.224Z,9.5
2017-12-28T09:34:35.628Z,9.6
2017-12-28T09:35:38.048Z,9.6
2017-12-28T09:36:40.461Z,9.6
2017-12-28T09:37:42.869Z,9.6
2017-12-28T09:38:45.288Z,9.7
2017-12-28T09:39:47.693Z,9.6
2017-12-28T09:40:50.103Z,9.7
2017-12-28T09:41:52.517Z,9.6
2017-12-28T09:42:54.918Z,9.7
2017-12-28T09:43:57.334Z,9.6
2017-12-28T09:44:59.746Z,9.6
2017-12-28T09:46:02.163Z,9.6
2017-12-28T09:47:04.570Z,9.7
2017-12-28T09:48:06.984Z,9.7
2017-12-28T09:49:09.380Z,9.7
2017-12-28T09:50:11.796Z,9.7
2017-12-28T09:51:14.212Z,9.7
2017-12-28T09:52:17.631Z,9.7
2017-12-28T09:53:20.053Z,9.7
2017-12-28T09:54:22.462Z,9.7
2017-12-28T09:55:24.871Z,9.7
2017-12-28T09:56:27.283Z,9.6
2017-12-28T09:57:29.687Z,9.7
2017-12-28T09:58:32.098Z,9.6
2017-12-28T09:59:34.512Z,9.6
2017-12-28T10:00:36.904Z,9.6
2017-12-28T10:01:39.316Z,9.7
2017-12-28T10:02:41.731Z,9.7
2017-12-28T10:03:44.435Z,9.7
2017-12-28T10:04:46.849Z,9.7
2017-12-28T10:05:49.254Z,9.7
2017-12-28T10:06:51.660Z,9.7
2017-12-28T10:07:54.071Z,9.7
2017-12-28T10:08:56.771Z,9.7
2017-12-28T10:09:59.183Z,9.7
2017-12-28T10:11:01.596Z,9.8
2017-12-28T10:12:04.004Z,9.8
2017-12-28T10:13:06.418Z,9.8
2017-12-28T10:14:08.831Z,9.8
2017-12-28T10:15:11.238Z,9.9
2017-12-28T10:16:13.650Z,9.8
2017-12-28T10:17:16.068Z,9.8
2017-12-28T10:18:18.479Z,9.9
2017-12-28T10:19:20.885Z,9.8
2017-12-28T10:20:23.304Z,9.8
2017-12-28T10:21:26.008Z,9.9
2017-12-28T10:22:28.730Z,9.9
2017-12-28T10:23:31.133Z,9.9
2017-12-28T10:24:33.555Z,9.9
2017-12-28T10:25:35.966Z,9.9
2017-12-28T10:26:38.369Z,9.9
2017-12-28T10:27:40.786Z,10
2017-12-28T10:28:43.193Z,10
2017-12-28T10:29:45.604Z,10
2017-12-28T10:30:48.295Z,10
2017-12-28T10:31:50.695Z,9.9
2017-12-28T10:32:53.104Z,9.9
2017-12-28T10:33:55.529Z,9.9
2017-12-28T10:34:57.936Z,9.9
2017-12-28T10:36:00.912Z,10
2017-12-28T10:37:03.615Z,10
2017-12-28T10:38:06.308Z,10
2017-12-28T10:39:08.733Z,10
2017-12-28T10:40:11.146Z,10
2017-12-28T10:41:13.832Z,10
2017-12-28T10:42:16.245Z,10
2017-12-28T10:43:18.654Z,10
2017-12-28T10:44:21.065Z,10.1
2017-12-28T10:45:23.480Z,10.1
2017-12-28T10:46:25.884Z,10.1
2017-12-28T10:47:28.295Z,10.1
2017-12-28T10:48:30.718Z,10.1
2017-12-28T10:49:33.410Z,10.1
2017-12-28T10:50:35.817Z,10.1
2017-12-28T10:51:38.230Z,10.1
2017-12-28T10:52:40.669Z,10.2
2017-12-28T10:53:43.054Z,10.2
2017-12-28T10:54:45.465Z,10.2
2017-12-28T10:55:47.881Z,10.2
2017-12-28T10:56:50.562Z,10.3
2017-12-28T10:57:53.329Z,10.3
2017-12-28T10:58:55.742Z,10.3
2017-12-28T10:59:58.140Z,10.3
2017-12-28T11:01:00.845Z,10.4
2017-12-28T11:02:03.839Z,10.4
2017-12-28T11:03:06.536Z,10.4
2017-12-28T11:04:09.246Z,10.4
2017-12-28T11:05:11.651Z,10.4
2017-12-28T11:06:14.063Z,10.4
2017-12-28T11:07:16.480Z,10.4
2017-12-28T11:08:18.893Z,10.4
2017-12-28T11:09:21.595Z,10.5
2017-12-28T11:10:24.003Z,10.5
2017-12-28T11:11:26.408Z,10.5
2017-12-28T11:12:29.113Z,10.5
2017-12-28T11:13:31.525Z,10.6
2017-12-28T11:14:33.925Z,10.6
2017-12-28T11:15:36.338Z,10.6
2017-12-28T11:16:38.751Z,10.7
2017-12-28T11:17:41.164Z,10.7
2017-12-28T11:18:43.579Z,10.8
2017-12-28T11:19:45.988Z,10.8
2017-12-28T11:20:48.400Z,10.9
2017-12-28T11:21:50.798Z,10.9
2017-12-28T11:22:53.213Z,11
2017-12-28T11:23:55.629Z,11
2017-12-28T11:24:58.038Z,11.1
2017-12-28T11:26:00.451Z,11.1
2017-12-28T11:27:02.874Z,11.2
2017-12-28T11:28:05.289Z,11.2
2017-12-28T11:29:07.710Z,11.2
2017-12-28T11:30:10.118Z,11.3
2017-12-28T11:31:12.522Z,11.3
2017-12-28T11:32:14.940Z,11.3
2017-12-28T11:33:17.355Z,11.4
2017-12-28T11:34:19.770Z,11.4
2017-12-28T11:35:22.473Z,11.5
2017-12-28T11:36:25.447Z,11.5
2017-12-28T11:37:27.859Z,11.6
2017-12-28T11:38:30.284Z,11.6
2017-12-28T11:39:32.691Z,11.6
2017-12-28T11:40:35.097Z,11.6
2017-12-28T11:41:37.514Z,11.6
2017-12-28T11:42:39.919Z,11.6
2017-12-28T11:43:42.334Z,11.6
2017-12-28T11:44:44.750Z,11.6
2017-12-28T11:45:47.160Z,11.6
2017-12-28T11:46:49.579Z,11.6
2017-12-28T11:47:51.990Z,11.6
2017-12-28T11:48:54.718Z,11.6
2017-12-28T11:49:57.135Z,11.7
2017-12-28T11:50:59.552Z,11.7
2017-12-28T11:52:01.963Z,11.7
2017-12-28T11:53:04.374Z,11.7
2017-12-28T11:54:06.782Z,11.7
2017-12-28T11:55:09.207Z,11.7
2017-12-28T11:56:11.609Z,11.7
2017-12-28T11:57:14.026Z,11.7
2017-12-28T11:58:16.738Z,11.7
2017-12-28T11:59:19.447Z,11.7
2017-12-28T12:00:21.855Z,11.7
2017-12-28T12:01:24.558Z,11.7
2017-12-28T12:02:26.954Z,11.7
2017-12-28T12:03:29.379Z,11.8
2017-12-28T12:04:31.784Z,11.8
2017-12-28T12:05:34.200Z,11.8
2017-12-28T12:06:36.939Z,11.8
2017-12-28T12:07:39.629Z,11.8
2017-12-28T12:08:42.042Z,11.8
2017-12-28T12:09:44.463Z,11.8
2017-12-28T12:10:46.870Z,11.8
2017-12-28T12:11:49.292Z,11.7
2017-12-28T12:12:51.706Z,11.7
2017-12-28T12:13:54.399Z,11.7
2017-12-28T12:14:56.811Z,11.7
2017-12-28T12:15:59.229Z,11.7
2017-12-28T12:17:01.637Z,11.6
2017-12-28T12:18:04.041Z,11.7
2017-12-28T12:19:06.745Z,11.7
2017-12-28T12:20:09.161Z,11.6
2017-12-28T12:21:11.565Z,11.6
2017-12-28T12:22:13.974Z,11.6
2017-12-28T12:23:16.382Z,11.6
2017-12-28T12:24:18.793Z,11.6
2017-12-28T12:25:21.212Z,11.5
2017-12-28T12:26:23.613Z,11.5
2017-12-28T12:27:26.309Z,11.5
2017-12-28T12:28:28.732Z,11.4
2017-12-28T12:29:31.149Z,11.4
2017-12-28T12:30:33.554Z,11.4
2017-12-28T12:31:35.968Z,11.4
2017-12-28T12:32:38.376Z,11.4
2017-12-28T12:33:40.783Z,11.3
2017-12-28T12:34:43.195Z,11.3
2017-12-28T12:35:45.599Z,11.3
2017-12-28T12:36:48.298Z,11.3
2017-12-28T12:37:50.721Z,11.2
2017-12-28T12:38:53.128Z,11.2
2017-12-28T12:39:55.542Z,11.2
2017-12-28T12:40:57.958Z,11.2
2017-12-28T12:42:00.379Z,11.2
2017-12-28T12:43:02.787Z,11.2
2017-12-28T12:44:05.203Z,11.1
2017-12-28T12:45:07.605Z,11.1
2017-12-28T12:46:10.024Z,11.1
2017-12-28T12:47:12.433Z,11.2
2017-12-28T12:48:14.848Z,11.2
2017-12-28T12:49:17.256Z,11.2
2017-12-28T12:50:19.672Z,11.2
2017-12-28T12:51:22.085Z,11.2
2017-12-28T12:52:24.497Z,11.3
2017-12-28T12:53:26.910Z,11.3
2017-12-28T12:54:29.335Z,11.3
2017-12-28T12:55:31.742Z,11.2
2017-12-28T12:56:34.457Z,11.2
2017-12-28T12:57:36.872Z,11.2
2017-12-28T12:58:39.286Z,11.2
2017-12-28T12:59:41.711Z,11.2
2017-12-28T13:00:44.124Z,11.2
2017-12-28T13:01:46.524Z,11.1
2017-12-28T13:02:48.942Z,11.2
2017-12-28T13:03:51.356Z,11.1
2017-12-28T13:04:53.781Z,11.2
2017-12-28T13:05:56.186Z,11.2
2017-12-28T13:06:58.602Z,11.1
2017-12-28T13:08:01.014Z,11.2
2017-12-28T13:09:03.432Z,11.2
2017-12-28T13:10:05.842Z,11.2
2017-12-28T13:11:08.536Z,11.2
2017-12-28T13:12:10.954Z,11.2
2017-12-28T13:13:13.349Z,11.2
2017-12-28T13:14:15.760Z,11.2
2017-12-28T13:15:18.178Z,11.1
2017-12-28T13:16:20.583Z,11.1
2017-12-28T13:17:22.993Z,11.1
2017-12-28T13:18:25.693Z,11.1
2017-12-28T13:19:28.391Z,11.1
2017-12-28T13:20:30.814Z,11.1
2017-12-28T13:21:33.805Z,11.1
2017-12-28T13:22:36.225Z,11.1
2017-12-28T13:23:38.630Z,11.1
2017-12-28T13:24:41.054Z,11.1
2017-12-28T13:25:44.042Z,11.1
2017-12-28T13:26:46.457Z,11.1
2017-12-28T13:27:48.873Z,11.1
2017-12-28T13:28:51.286Z,11.1
2017-12-28T13:29:53.987Z,11.1
2017-12-28T13:30:56.398Z,11.1
2017-12-28T13:31:59.089Z,11.1
2017-12-28T13:33:01.788Z,11.1
2017-12-28T13:34:04.202Z,11
2017-12-28T13:35:06.611Z,11
2017-12-28T13:36:09.017Z,11.1
2017-12-28T13:37:11.443Z,11.1
2017-12-28T13:38:13.852Z,11.1
2017-12-28T13:39:16.556Z,11.1
2017-12-28T13:40:19.251Z,11.1
2017-12-28T13:41:21.661Z,11.1
2017-12-28T13:42:24.068Z,11.1
2017-12-28T13:43:26.486Z,11
2017-12-28T13:44:28.884Z,11
2017-12-28T13:45:31.299Z,11
2017-12-28T13:46:33.722Z,11
2017-12-28T13:47:36.129Z,10.9
2017-12-28T13:48:38.544Z,10.9
2017-12-28T13:49:40.947Z,11
2017-12-28T13:50:43.354Z,10.9
2017-12-28T13:51:45.777Z,10.9
2017-12-28T13:52:48.181Z,10.9
2017-12-28T13:53:50.590Z,10.9
2017-12-28T13:54:52.996Z,10.9
2017-12-28T13:55:55.405Z,10.9
2017-12-28T13:56:58.109Z,10.9
2017-12-28T13:58:00.523Z,10.9
2017-12-28T13:59:02.931Z,10.8
2017-12-28T14:00:05.353Z,10.8
2017-12-28T14:01:07.767Z,10.8
2017-12-28T14:02:10.178Z,10.7
2017-12-28T14:03:13.173Z,10.7
2017-12-28T14:04:15.586Z,10.7
2017-12-28T14:05:18.281Z,10.7
2017-12-28T14:06:20.695Z,10.6
2017-12-28T14:07:23.096Z,10.6
2017-12-28T14:08:25.508Z,10.6
2017-12-28T14:09:27.925Z,10.6
2017-12-28T14:10:30.324Z,10.6
2017-12-28T14:11:32.736Z,10.6
2017-12-28T14:12:35.154Z,10.6
2017-12-28T14:13:37.574Z,10.6
2017-12-28T14:14:40.283Z,10.6
2017-12-28T14:15:42.700Z,10.6
2017-12-28T14:16:45.122Z,10.6
2017-12-28T14:17:47.525Z,10.6
2017-12-28T14:18:49.934Z,10.6